createdAt,value
2018-06-16T00:01:35.026Z,9.23
2018-06-16T00:04:07.049Z,8.70
2018-06-16T00:06:39.108Z,10.10
2018-06-16T00:09:11.177Z,9.40
2018-06-16T00:11:43.261Z,9.10
2018-06-16T00:14:15.347Z,10.90
2018-06-16T00:16:47.463Z,11.70
2018-06-16T00:19:19.532Z,10.03
2018-06-16T00:21:51.679Z,9.30
2018-06-16T00:24:23.719Z,9.73
2018-06-16T00:26:55.768Z,9.87
2018-06-16T00:29:27.812Z,9.80
2018-06-16T00:31:59.905Z,9.43
2018-06-16T00:34:31.986Z,9.93
2018-06-16T00:37:04.045Z,10.40
2018-06-16T00:39:36.113Z,10.90
2018-06-16T00:42:09.249Z,10.98
2018-06-16T00:44:41.328Z,11.30
2018-06-16T00:47:13.602Z,9.80
2018-06-16T00:49:45.653Z,10.00
2018-06-16T00:52:17.819Z,9.95
2018-06-16T00:54:49.904Z,10.08
2018-06-16T00:57:33.724Z,9.98
2018-06-16T01:00:05.798Z,9.57
2018-06-16T01:02:38.009Z,10.00
2018-06-16T01:05:10.290Z,10.43
2018-06-16T01:07:42.385Z,9.90
2018-06-16T01:10:14.419Z,10.98
2018-06-16T01:12:46.476Z,10.93
2018-06-16T01:15:18.543Z,10.30
2018-06-16T01:17:50.621Z,11.00
2018-06-16T01:20:22.671Z,10.50
2018-06-16T01:22:54.752Z,11.73
2018-06-16T01:25:26.887Z,12.73
2018-06-16T01:27:58.939Z,11.68
2018-06-16T01:30:31.024Z,12.10
2018-06-16T01:33:03.179Z,11.68
2018-06-16T01:35:35.279Z,12.05
2018-06-16T01:38:07.326Z,11.60
2018-06-16T01:40:39.360Z,12.33
2018-06-16T01:43:11.407Z,11.10
2018-06-16T01:45:43.459Z,12.37
2018-06-16T01:48:15.579Z,11.50
2018-06-16T01:50:47.641Z,12.10
2018-06-16T01:53:19.701Z,11.22
2018-06-16T01:55:51.783Z,11.50
2018-06-16T01:58:23.875Z,11.00
2018-06-16T02:00:55.906Z,11.25
2018-06-16T02:03:27.966Z,11.83
2018-06-16T02:06:00.029Z,11.53
2018-06-16T02:08:32.096Z,11.70
2018-06-16T02:11:04.136Z,10.90
2018-06-16T02:13:36.285Z,10.30
2018-06-16T02:16:08.326Z,10.00
2018-06-16T02:18:40.378Z,11.88
2018-06-16T02:21:12.407Z,10.88
2018-06-16T02:23:44.568Z,10.93
2018-06-16T02:26:16.583Z,11.08
2018-06-16T02:28:48.612Z,11.33
2018-06-16T02:31:20.730Z,10.85
2018-06-16T02:33:52.890Z,11.90
2018-06-16T02:36:24.966Z,11.35
2018-06-16T02:38:57.024Z,12.05
2018-06-16T02:41:29.065Z,11.35
2018-06-16T02:44:01.129Z,12.82
2018-06-16T02:46:33.296Z,11.45
2018-06-16T02:49:05.338Z,12.00
2018-06-16T02:51:37.434Z,11.15
2018-06-16T02:54:09.503Z,11.20
2018-06-16T02:56:41.572Z,12.85
2018-06-16T02:59:13.623Z,13.05
2018-06-16T03:01:45.764Z,12.35
2018-06-16T03:04:17.848Z,12.00
2018-06-16T03:06:49.882Z,12.07
2018-06-16T03:09:21.968Z,14.10
2018-06-16T03:11:54.033Z,12.82
2018-06-16T03:14:26.088Z,12.50
2018-06-16T03:16:58.147Z,13.35
2018-06-16T03:19:30.252Z,12.90
2018-06-16T03:22:02.310Z,12.00
2018-06-16T03:24:34.390Z,13.38
2018-06-16T03:27:06.461Z,12.63
2018-06-16T03:29:38.508Z,12.65
2018-06-16T03:32:10.675Z,12.82
2018-06-16T03:34:42.719Z,13.25
2018-06-16T03:37:14.828Z,12.73
2018-06-16T03:39:46.903Z,13.35
2018-06-16T03:42:19.032Z,13.70
2018-06-16T03:44:51.101Z,13.18
2018-06-16T03:47:23.164Z,12.37
2018-06-16T03:49:55.277Z,13.62
2018-06-16T03:52:27.359Z,11.57
2018-06-16T03:54:59.458Z,12.82
2018-06-16T03:57:31.563Z,12.82
2018-06-16T04:00:04.288Z,13.72
2018-06-16T04:02:36.339Z,13.55
2018-06-16T04:05:08.372Z,12.65
2018-06-16T04:07:40.410Z,13.00
2018-06-16T04:10:12.438Z,14.33
2018-06-16T04:12:44.505Z,11.88
2018-06-16T04:15:16.573Z,12.67
2018-06-16T04:17:48.626Z,12.40
2018-06-16T04:20:20.811Z,12.07
2018-06-16T04:22:52.880Z,11.67
2018-06-16T04:25:24.979Z,11.10
2018-06-16T04:27:57.032Z,9.20
2018-06-16T04:30:29.103Z,8.80
2018-06-16T04:33:01.184Z,8.70
2018-06-16T04:35:33.258Z,8.20
2018-06-16T04:38:05.305Z,8.23
2018-06-16T04:40:37.369Z,8.37
2018-06-16T04:43:09.441Z,8.30
2018-06-16T04:48:20.219Z,8.03
2018-06-16T04:50:52.264Z,8.10
2018-06-16T04:53:24.332Z,8.50
2018-06-16T04:55:56.388Z,8.50
2018-06-16T04:58:28.921Z,8.27
2018-06-16T05:01:01.029Z,8.90
2018-06-16T05:03:33.500Z,8.20
2018-06-16T05:06:05.568Z,9.07
2018-06-16T05:08:37.683Z,9.67
2018-06-16T05:11:09.757Z,8.63
2018-06-16T05:13:41.888Z,8.03
2018-06-16T05:16:14.001Z,8.93
2018-06-16T05:18:46.081Z,8.00
2018-06-16T05:21:18.187Z,8.07
2018-06-16T05:23:50.258Z,8.23
2018-06-16T05:26:22.335Z,8.07
2018-06-16T05:28:54.499Z,9.10
2018-06-16T05:31:26.611Z,8.00
2018-06-16T05:33:58.675Z,8.07
2018-06-16T05:36:30.773Z,8.53
2018-06-16T05:39:04.501Z,8.93
2018-06-16T05:41:36.631Z,8.77
2018-06-16T05:44:08.759Z,7.90
2018-06-16T05:46:40.850Z,8.60
2018-06-16T05:49:12.920Z,8.50
2018-06-16T05:51:45.026Z,8.40
2018-06-16T05:54:17.093Z,8.37
2018-06-16T05:56:49.491Z,8.93
2018-06-16T05:59:21.548Z,8.37
2018-06-16T06:01:53.642Z,7.77
2018-06-16T06:04:25.801Z,8.90
2018-06-16T06:06:57.842Z,8.63
2018-06-16T06:09:29.900Z,8.70
2018-06-16T06:12:01.946Z,8.10
2018-06-16T06:14:34.027Z,7.40
2018-06-16T06:17:06.089Z,7.60
2018-06-16T06:19:38.374Z,8.50
2018-06-16T06:22:10.454Z,6.97
2018-06-16T06:24:42.567Z,7.87
2018-06-16T06:27:14.737Z,6.57
2018-06-16T06:29:46.861Z,6.90
2018-06-16T06:32:18.963Z,7.60
2018-06-16T06:34:51.123Z,7.27
2018-06-16T06:37:23.230Z,6.30
2018-06-16T06:39:55.265Z,6.60
2018-06-16T06:42:27.468Z,6.80
2018-06-16T06:44:59.499Z,7.17
2018-06-16T06:47:31.689Z,7.60
2018-06-16T06:50:03.762Z,6.67
2018-06-16T06:52:35.883Z,7.30
2018-06-16T06:55:08.024Z,7.33
2018-06-16T06:57:40.184Z,7.40
2018-06-16T07:00:12.325Z,7.00
2018-06-16T07:02:44.407Z,6.33
2018-06-16T07:05:16.582Z,7.20
2018-06-16T07:07:48.708Z,6.77
2018-06-16T07:10:20.741Z,7.00
2018-06-16T07:12:52.787Z,6.90
2018-06-16T07:15:24.951Z,6.70
2018-06-16T07:17:57.145Z,6.63
2018-06-16T07:20:29.176Z,6.17
2018-06-16T07:23:01.409Z,7.27
2018-06-16T07:25:33.604Z,6.40
2018-06-16T07:28:05.825Z,6.67
2018-06-16T07:30:37.943Z,7.77
2018-06-16T07:33:10.020Z,7.43
2018-06-16T07:35:42.242Z,6.13
2018-06-16T07:38:14.343Z,6.47
2018-06-16T07:40:46.404Z,6.50
2018-06-16T07:43:18.565Z,5.70
2018-06-16T07:45:50.696Z,5.60
2018-06-16T07:48:22.845Z,5.47
2018-06-16T07:50:55.040Z,5.63
2018-06-16T07:53:27.128Z,5.30
2018-06-16T07:55:59.182Z,5.20
2018-06-16T07:58:31.234Z,6.63
2018-06-16T08:01:03.401Z,5.43
2018-06-16T08:03:35.514Z,5.50
2018-06-16T08:06:07.652Z,6.20
2018-06-16T08:08:39.754Z,5.30
2018-06-16T08:11:11.864Z,5.40
2018-06-16T08:13:44.451Z,5.67
2018-06-16T08:16:16.635Z,6.67
2018-06-16T08:18:48.783Z,5.87
2018-06-16T08:21:20.848Z,5.43
2018-06-16T08:23:53.001Z,4.90
2018-06-16T08:26:25.134Z,5.23
2018-06-16T08:28:57.308Z,4.70
2018-06-16T08:31:29.371Z,5.00
2018-06-16T08:34:01.464Z,4.90
2018-06-16T08:36:33.640Z,4.90
2018-06-16T08:39:07.545Z,5.10
2018-06-16T08:41:40.033Z,4.97
2018-06-16T08:44:12.225Z,5.40
2018-06-16T08:46:44.307Z,4.77
2018-06-16T08:49:16.356Z,5.00
2018-06-16T08:51:48.459Z,4.97
2018-06-16T08:54:20.525Z,5.23
2018-06-16T08:56:52.646Z,4.80
2018-06-16T08:59:24.747Z,4.50
2018-06-16T09:01:57.640Z,4.80
2018-06-16T09:04:29.787Z,4.83
2018-06-16T09:07:01.867Z,5.17
2018-06-16T09:09:33.958Z,4.80
2018-06-16T09:12:06.071Z,4.37
2018-06-16T09:14:38.171Z,4.47
2018-06-16T09:17:10.243Z,4.80
2018-06-16T09:19:42.297Z,4.20
2018-06-16T09:22:14.388Z,4.53
2018-06-16T09:24:46.471Z,5.20
2018-06-16T09:27:18.538Z,4.27
2018-06-16T09:29:50.635Z,4.07
2018-06-16T09:32:22.712Z,4.47
2018-06-16T09:34:54.783Z,4.10
2018-06-16T09:37:26.885Z,4.40
2018-06-16T09:39:58.966Z,5.30
2018-06-16T09:42:31.128Z,5.00
2018-06-16T09:45:03.200Z,4.07
2018-06-16T09:47:35.267Z,4.80
2018-06-16T09:50:07.337Z,4.70
2018-06-16T09:52:39.638Z,5.10
2018-06-16T09:55:11.689Z,4.73
2018-06-16T09:57:43.760Z,5.00
2018-06-16T10:00:21.655Z,5.20
2018-06-16T10:02:53.753Z,5.30
2018-06-16T10:05:25.841Z,5.70
2018-06-16T10:07:58.609Z,4.73
2018-06-16T10:10:30.712Z,4.90
2018-06-16T10:13:02.776Z,4.30
2018-06-16T10:15:34.823Z,4.07
2018-06-16T10:18:07.328Z,4.13
2018-06-16T10:20:39.381Z,5.60
2018-06-16T10:23:11.483Z,4.53
2018-06-16T10:25:43.644Z,4.30
2018-06-16T10:28:15.719Z,4.13
2018-06-16T10:30:47.800Z,4.80
2018-06-16T10:33:19.893Z,4.33
2018-06-16T10:35:51.930Z,3.80
2018-06-16T10:38:24.011Z,4.77
2018-06-16T10:40:57.112Z,4.10
2018-06-16T10:43:29.205Z,4.30
2018-06-16T10:46:01.284Z,4.37
2018-06-16T10:48:33.366Z,4.93
2018-06-16T10:51:10.758Z,4.70
2018-06-16T10:53:42.812Z,4.57
2018-06-16T10:56:14.889Z,4.37
2018-06-16T10:58:46.971Z,4.83
2018-06-16T11:01:19.100Z,4.50
2018-06-16T11:03:51.225Z,4.37
2018-06-16T11:06:23.560Z,4.73
2018-06-16T11:08:55.736Z,4.47
2018-06-16T11:11:27.844Z,4.37
2018-06-16T11:13:59.927Z,3.83
2018-06-16T11:16:32.072Z,4.30
2018-06-16T11:19:04.711Z,4.23
2018-06-16T11:21:36.968Z,3.80
2018-06-16T11:24:09.079Z,4.20
2018-06-16T11:26:41.185Z,4.43
2018-06-16T11:29:13.256Z,4.47
2018-06-16T11:31:45.329Z,4.20
2018-06-16T11:34:17.415Z,4.50
2018-06-16T11:36:49.467Z,4.83
2018-06-16T11:39:21.575Z,3.93
2018-06-16T11:41:53.656Z,4.27
2018-06-16T11:44:25.763Z,4.23
2018-06-16T11:46:57.891Z,4.37
2018-06-16T11:49:29.952Z,3.80
2018-06-16T11:52:02.063Z,3.90
2018-06-16T11:54:34.148Z,3.87
2018-06-16T11:57:06.238Z,4.10
2018-06-16T11:59:38.332Z,4.13
2018-06-16T12:02:10.444Z,3.80
2018-06-16T12:04:42.498Z,4.03
2018-06-16T12:07:14.564Z,4.20
2018-06-16T12:09:46.679Z,3.60
2018-06-16T12:12:25.639Z,3.83
2018-06-16T12:14:57.747Z,3.80
2018-06-16T12:17:29.776Z,3.90
2018-06-16T12:20:01.874Z,3.70
2018-06-16T12:22:33.939Z,3.47
2018-06-16T12:25:06.004Z,3.40
2018-06-16T12:27:38.141Z,3.27
2018-06-16T12:30:10.346Z,3.60
2018-06-16T12:32:42.433Z,3.10
2018-06-16T12:35:14.499Z,3.67
2018-06-16T12:37:46.630Z,3.03
2018-06-16T12:40:18.749Z,2.73
2018-06-16T12:42:50.801Z,3.13
2018-06-16T12:45:22.885Z,3.37
2018-06-16T12:47:54.969Z,2.90
2018-06-16T12:50:27.047Z,3.23
2018-06-16T12:52:59.141Z,3.37
2018-06-16T12:55:31.247Z,2.70
2018-06-16T12:58:03.299Z,3.37
2018-06-16T13:00:35.409Z,3.23
2018-06-16T13:03:07.482Z,3.10
2018-06-16T13:05:39.555Z,3.40
2018-06-16T13:08:11.663Z,3.50
2018-06-16T13:10:43.739Z,3.30
2018-06-16T13:13:15.833Z,3.20
2018-06-16T13:15:47.888Z,2.90
2018-06-16T13:18:20.055Z,2.90
2018-06-16T13:20:52.089Z,3.00
2018-06-16T13:23:24.160Z,2.57
2018-06-16T13:25:56.223Z,2.93
2018-06-16T13:28:28.343Z,2.90
2018-06-16T13:31:00.474Z,3.17
2018-06-16T13:33:32.595Z,3.40
2018-06-16T13:36:04.697Z,3.17
2018-06-16T13:38:36.754Z,3.10
2018-06-16T13:41:08.879Z,2.87
2018-06-16T13:43:40.955Z,2.90
2018-06-16T13:46:13.320Z,3.23
2018-06-16T13:48:45.387Z,3.03
2018-06-16T13:51:17.485Z,2.90
2018-06-16T13:53:49.522Z,3.30
2018-06-16T13:56:21.597Z,3.10
2018-06-16T13:58:53.657Z,3.53
2018-06-16T14:01:25.717Z,3.27
2018-06-16T14:03:57.813Z,3.17
2018-06-16T14:06:29.961Z,3.50
2018-06-16T14:09:02.053Z,2.93
2018-06-16T14:11:34.147Z,3.07
2018-06-16T14:14:06.271Z,3.30
2018-06-16T14:16:38.350Z,3.30
2018-06-16T14:19:11.165Z,2.80
2018-06-16T14:21:43.468Z,3.50
2018-06-16T14:24:15.594Z,2.97
2018-06-16T14:26:47.684Z,3.30
2018-06-16T14:29:19.953Z,3.33
2018-06-16T14:31:52.079Z,3.20
2018-06-16T14:34:24.178Z,3.30
2018-06-16T14:36:56.780Z,2.80
2018-06-16T14:39:28.914Z,3.17
2018-06-16T14:42:01.175Z,3.43
2018-06-16T14:44:33.295Z,3.30
2018-06-16T14:47:05.496Z,3.27
2018-06-16T14:49:37.543Z,3.80
2018-06-16T14:52:09.658Z,3.00
2018-06-16T14:54:41.742Z,3.40
2018-06-16T14:57:14.941Z,3.07
2018-06-16T14:59:49.065Z,2.63
2018-06-16T15:02:21.156Z,3.43
2018-06-16T15:04:53.381Z,3.40
2018-06-16T15:07:25.419Z,3.37
2018-06-16T15:09:57.537Z,3.53
2018-06-16T15:12:29.791Z,3.13
2018-06-16T15:15:01.865Z,3.27
2018-06-16T15:17:33.944Z,3.00
2018-06-16T15:20:06.034Z,3.20
2018-06-16T15:22:38.148Z,3.30
2018-06-16T15:25:10.210Z,2.93
2018-06-16T15:27:42.293Z,3.40
2018-06-16T15:30:14.461Z,3.27
2018-06-16T15:32:46.519Z,3.50
2018-06-16T15:35:18.588Z,3.10
2018-06-16T15:37:50.676Z,4.00
2018-06-16T15:40:22.878Z,3.73
2018-06-16T15:42:54.955Z,3.50
2018-06-16T15:45:27.069Z,4.03
2018-06-16T15:47:59.429Z,3.40
2018-06-16T15:50:31.548Z,3.37
2018-06-16T15:53:03.780Z,3.80
2018-06-16T15:55:35.993Z,3.30
2018-06-16T15:58:08.246Z,3.43
2018-06-16T16:00:40.535Z,3.53
2018-06-16T16:03:12.852Z,3.20
2018-06-16T16:05:45.014Z,3.60
2018-06-16T16:08:17.103Z,3.13
2018-06-16T16:10:49.275Z,3.00
2018-06-16T16:13:21.522Z,3.17
2018-06-16T16:15:53.747Z,3.07
2018-06-16T16:18:26.956Z,3.80
2018-06-16T16:20:59.008Z,3.80
2018-06-16T16:23:31.258Z,3.50
2018-06-16T16:26:03.506Z,3.43
2018-06-16T16:28:35.595Z,3.10
2018-06-16T16:31:07.680Z,2.90
2018-06-16T16:33:39.782Z,3.67
2018-06-16T16:36:11.941Z,3.10
2018-06-16T16:38:44.112Z,4.00
2018-06-16T16:41:16.284Z,4.03
2018-06-16T16:43:48.438Z,3.33
2018-06-16T16:46:20.582Z,2.93
2018-06-16T16:48:52.719Z,4.97
2018-06-16T16:51:24.824Z,4.63
2018-06-16T16:53:56.965Z,3.93
2018-06-16T16:56:29.061Z,3.53
2018-06-16T16:59:01.175Z,3.20
2018-06-16T17:01:33.342Z,3.23
2018-06-16T17:04:05.430Z,3.43
2018-06-16T17:06:37.553Z,4.10
2018-06-16T17:09:10.754Z,3.30
2018-06-16T17:11:42.901Z,3.97
2018-06-16T17:14:15.017Z,4.07
2018-06-16T17:16:47.108Z,3.97
2018-06-16T17:19:19.218Z,4.00
2018-06-16T17:21:51.295Z,4.07
2018-06-16T17:24:23.548Z,4.40
2018-06-16T17:26:55.749Z,3.90
2018-06-16T17:29:27.849Z,4.07
2018-06-16T17:32:00.166Z,3.60
2018-06-16T17:34:32.280Z,3.83
2018-06-16T17:37:05.226Z,3.47
2018-06-16T17:39:37.320Z,4.10
2018-06-16T17:42:09.479Z,4.40
2018-06-16T17:44:42.857Z,4.20
2018-06-16T17:47:15.133Z,3.97
2018-06-16T17:49:47.470Z,4.17
2018-06-16T17:52:19.616Z,4.30
2018-06-16T17:54:51.748Z,3.80
2018-06-16T17:57:23.904Z,4.30
2018-06-16T17:59:57.519Z,4.20
2018-06-16T18:02:30.721Z,4.10
2018-06-16T18:05:02.869Z,3.80
2018-06-16T18:07:35.003Z,4.60
2018-06-16T18:10:07.168Z,4.40
2018-06-16T18:12:39.442Z,4.20
2018-06-16T18:15:11.733Z,4.37
2018-06-16T18:17:43.935Z,4.57
2018-06-16T18:20:18.573Z,4.63
2018-06-16T18:22:50.993Z,4.30
2018-06-16T18:25:23.334Z,5.10
2018-06-16T18:27:55.471Z,5.23
2018-06-16T18:30:27.710Z,5.37
2018-06-16T18:32:59.846Z,5.30
2018-06-16T18:35:31.990Z,6.17
2018-06-16T18:38:04.184Z,4.80
2018-06-16T18:40:36.328Z,5.60
2018-06-16T18:43:08.749Z,5.00
2018-06-16T18:45:40.845Z,4.83
2018-06-16T18:48:12.976Z,4.83
2018-06-16T18:50:45.173Z,4.70
2018-06-16T18:53:17.407Z,4.60
2018-06-16T18:55:49.534Z,4.60
2018-06-16T18:58:22.116Z,4.63
2018-06-16T19:00:54.320Z,4.57
2018-06-16T19:03:26.457Z,4.90
2018-06-16T19:06:02.421Z,4.73
2018-06-16T19:08:37.921Z,4.90
2018-06-16T19:11:13.666Z,4.97
2018-06-16T19:13:47.888Z,4.70
2018-06-16T19:16:20.061Z,4.90
2018-06-16T19:18:52.456Z,5.37
2018-06-16T19:21:24.540Z,4.63
2018-06-16T19:23:56.679Z,4.77
2018-06-16T19:26:28.842Z,5.10
2018-06-16T19:29:01.100Z,4.97
2018-06-16T19:31:33.504Z,5.10
2018-06-16T19:34:05.652Z,4.83
2018-06-16T19:36:37.789Z,5.10
2018-06-16T19:39:11.157Z,4.97
2018-06-16T19:41:45.294Z,4.90
2018-06-16T19:44:17.479Z,4.63
2018-06-16T19:46:49.581Z,5.10
2018-06-16T19:49:21.739Z,5.17
2018-06-16T19:51:54.948Z,4.83
2018-06-16T19:54:27.027Z,4.90
2018-06-16T19:56:59.467Z,4.93
2018-06-16T19:59:32.780Z,4.70
2018-06-16T20:02:05.621Z,5.67
2018-06-16T20:04:37.750Z,5.57
2018-06-16T20:07:09.869Z,6.90
2018-06-16T20:09:44.084Z,6.80
2018-06-16T20:12:16.181Z,5.90
2018-06-16T20:14:48.361Z,7.13
2018-06-16T20:17:20.542Z,7.33
2018-06-16T20:19:52.710Z,7.50
2018-06-16T20:22:25.480Z,7.27
2018-06-16T20:24:57.673Z,7.80
2018-06-16T20:27:29.804Z,7.50
2018-06-16T20:30:02.327Z,7.27
2018-06-16T20:32:34.517Z,7.73
2018-06-16T20:35:06.876Z,7.50
2018-06-16T20:37:39.026Z,8.40
2018-06-16T20:40:11.194Z,7.70
2018-06-16T20:42:43.385Z,7.53
2018-06-16T20:45:15.566Z,7.50
2018-06-16T20:47:47.807Z,6.60
2018-06-16T20:50:19.946Z,7.23
2018-06-16T20:52:52.210Z,6.17
2018-06-16T20:55:24.376Z,7.70
2018-06-16T20:57:56.563Z,6.93
2018-06-16T21:00:28.703Z,7.03
2018-06-16T21:03:00.820Z,6.57
2018-06-16T21:05:32.933Z,7.67
2018-06-16T21:08:05.109Z,6.90
2018-06-16T21:10:37.279Z,7.47
2018-06-16T21:13:10.132Z,7.23
2018-06-16T21:15:43.055Z,7.00
2018-06-16T21:18:15.245Z,7.40
2018-06-16T21:20:47.336Z,7.70
2018-06-16T21:23:19.535Z,7.90
2018-06-16T21:25:51.704Z,7.80
2018-06-16T21:28:24.028Z,8.03
2018-06-16T21:30:56.205Z,7.80
2018-06-16T21:33:28.340Z,7.77
2018-06-16T21:36:00.510Z,7.20
2018-06-16T21:38:32.681Z,6.33
2018-06-16T21:41:04.821Z,7.10
2018-06-16T21:43:36.911Z,7.50
2018-06-16T21:46:09.117Z,7.20
2018-06-16T21:48:41.251Z,7.67
2018-06-16T21:51:13.319Z,6.90
2018-06-16T21:53:45.474Z,8.07
2018-06-16T21:56:17.617Z,8.67
2018-06-16T21:58:49.859Z,7.93
2018-06-16T22:01:22.715Z,8.03
2018-06-16T22:03:54.902Z,8.50
2018-06-16T22:06:27.053Z,7.80
2018-06-16T22:08:59.844Z,7.13
2018-06-16T22:11:31.968Z,7.60
2018-06-16T22:14:04.060Z,8.37
2018-06-16T22:16:36.153Z,7.03
2018-06-16T22:19:08.268Z,7.33
2018-06-16T22:21:40.463Z,7.63
2018-06-16T22:24:12.631Z,7.47
2018-06-16T22:26:44.821Z,7.70
2018-06-16T22:29:16.896Z,8.27
2018-06-16T22:31:49.103Z,7.67
2018-06-16T22:34:21.241Z,7.30
2018-06-16T22:36:53.403Z,6.73
2018-06-16T22:39:25.503Z,7.93
2018-06-16T22:41:57.645Z,7.07
2018-06-16T22:44:29.765Z,8.00
2018-06-16T22:47:01.916Z,7.70
2018-06-16T22:49:34.042Z,7.87
2018-06-16T22:52:06.291Z,7.50
2018-06-16T22:54:38.400Z,7.70
2018-06-16T22:57:10.709Z,7.60
2018-06-16T22:59:43.914Z,7.80
2018-06-16T23:02:16.038Z,8.00
2018-06-16T23:04:48.166Z,7.83
2018-06-16T23:07:20.406Z,7.50
2018-06-16T23:09:52.517Z,7.70
2018-06-16T23:12:24.695Z,7.70
2018-06-16T23:14:56.828Z,8.00
2018-06-16T23:17:28.941Z,7.63
2018-06-16T23:20:01.008Z,8.97
2018-06-16T23:22:33.197Z,8.13
2018-06-16T23:25:05.347Z,7.57
2018-06-16T23:27:37.428Z,7.50
2018-06-16T23:30:09.515Z,8.07
2018-06-16T23:32:41.597Z,15.00
2018-06-16T23:35:13.736Z,9.57
2018-06-16T23:37:45.859Z,9.20
2018-06-16T23:40:18.017Z,9.53
2018-06-16T23:42:50.107Z,15.80
2018-06-16T23:45:22.168Z,16.03
2018-06-16T23:47:54.211Z,14.93
2018-06-16T23:50:26.351Z,12.07
2018-06-16T23:52:58.459Z,12.97
2018-06-16T23:55:30.525Z,21.87
2018-06-16T23:58:02.753Z,59.07
